sensor_id;sensor_type;location;lat;lon;timestamp;pressure;altitude;pressure_sealevel;temperature;humidity
42001;BME280;27689;48.390;10.856;2024-01-25T00:02:12;97212.38;;;7.56;100.00
42001;BME280;27689;48.390;10.856;2024-01-25T00:04:55;97212.03;;;7.48;100.00
42001;BME280;27689;48.390;10.856;2024-01-25T00:07:46;97209.22;;;7.51;100.00
42001;BME280;27689;48.390;10.856;2024-01-25T00:10:30;97213.16;;;7.44;100.00
42001;BME280;27689;48.390;10.856;2024-01-25T00:13:14;97216.13;;;7.52;100.00
42001;BME280;27689;48.390;10.856;2024-01-25T00:15:58;97212.38;;;7.56;100.00
42001;BME280;27689;48.390;10.856;2024-01-25T00:18:42;97205.97;;;7.48;100.00
42001;BME280;27689;48.390;10.856;2024-01-25T00:21:26;97218.47;;;7.42;100.00
42001;BME280;27689;48.390;10.856;2024-01-25T00:24:11;97218.84;;;7.63;100.00
42001;BME280;27689;48.390;10.856;2024-01-25T00:26:55;97211.31;;;7.59;100.00
42001;BME280;27689;48.390;10.856;2024-01-25T00:29:39;97209.53;;;7.59;100.00
42001;BME280;27689;48.390;10.856;2024-01-25T00:32:23;97210.28;;;7.61;100.00
42001;BME280;27689;48.390;10.856;2024-01-25T00:35:07;97204.16;;;7.75;100.00
42001;BME280;27689;48.390;10.856;2024-01-25T00:37:53;97198.00;;;7.76;100.00
42001;BME280;27689;48.390;10.856;2024-01-25T00:40:37;97199.94;;;7.60;100.00
42001;BME280;27689;48.390;10.856;2024-01-25T00:43:21;97185.97;;;7.61;100.00
42001;BME280;27689;48.390;10.856;2024-01-25T00:46:05;97188.28;;;7.65;100.00
42001;BME280;27689;48.390;10.856;2024-01-25T00:48:49;97181.09;;;7.69;100.00
42001;BME280;27689;48.390;10.856;2024-01-25T00:51:33;97185.38;;;7.70;100.00
42001;BME280;27689;48.390;10.856;2024-01-25T00:54:17;97182.22;;;7.65;100.00
42001;BME280;27689;48.390;10.856;2024-01-25T00:57:01;97181.59;;;7.74;100.00
42001;BME280;27689;48.390;10.856;2024-01-25T00:59:45;97173.06;;;7.85;100.00
42001;BME280;27689;48.390;10.856;2024-01-25T01:02:29;97180.91;;;7.85;100.00
42001;BME280;27689;48.390;10.856;2024-01-25T01:05:15;97182.69;;;7.84;100.00
42001;BME280;27689;48.390;10.856;2024-01-25T01:07:59;97166.59;;;7.90;100.00
42001;BME280;27689;48.390;10.856;2024-01-25T01:10:42;97169.00;;;7.81;100.00
42001;BME280;27689;48.390;10.856;2024-01-25T01:13:26;97174.84;;;7.71;100.00
42001;BME280;27689;48.390;10.856;2024-01-25T01:16:10;97170.97;;;7.64;100.00
42001;BME280;27689;48.390;10.856;2024-01-25T01:18:54;97169.81;;;7.68;100.00
42001;BME280;27689;48.390;10.856;2024-01-25T01:21:38;97178.78;;;7.77;100.00
42001;BME280;27689;48.390;10.856;2024-01-25T01:24:25;97186.00;;;7.73;100.00
42001;BME280;27689;48.390;10.856;2024-01-25T01:27:09;97183.47;;;7.72;100.00
42001;BME280;27689;48.390;10.856;2024-01-25T01:29:52;97182.13;;;7.79;100.00
42001;BME280;27689;48.390;10.856;2024-01-25T01:32:36;97179.72;;;7.76;100.00
42001;BME280;27689;48.390;10.856;2024-01-25T01:35:20;97178.41;;;7.83;100.00
42001;BME280;27689;48.390;10.856;2024-01-25T01:38:04;97180.56;;;7.89;100.00
42001;BME280;27689;48.390;10.856;2024-01-25T01:40:48;97173.47;;;7.91;100.00
42001;BME280;27689;48.390;10.856;2024-01-25T01:43:32;97179.22;;;7.96;100.00
42001;BME280;27689;48.390;10.856;2024-01-25T01:46:20;97167.03;;;7.84;100.00
42001;BME280;27689;48.390;10.856;2024-01-25T01:49:11;97173.38;;;7.93;100.00
42001;BME280;27689;48.390;10.856;2024-01-25T01:51:55;97172.44;;;7.94;100.00
42001;BME280;27689;48.390;10.856;2024-01-25T01:54:39;97154.06;;;7.95;100.00
42001;BME280;27689;48.390;10.856;2024-01-25T01:57:24;97157.81;;;7.78;100.00
42001;BME280;27689;48.390;10.856;2024-01-25T02:00:09;97160.53;;;7.77;100.00
42001;BME280;27689;48.390;10.856;2024-01-25T02:02:53;97154.81;;;7.85;100.00
42001;BME280;27689;48.390;10.856;2024-01-25T02:05:37;97150.19;;;7.88;100.00
42001;BME280;27689;48.390;10.856;2024-01-25T02:08:21;97152.09;;;7.86;100.00
42001;BME280;27689;48.390;10.856;2024-01-25T02:11:05;97159.19;;;7.84;100.00
42001;BME280;27689;48.390;10.856;2024-01-25T02:13:49;97155.53;;;7.87;100.00
42001;BME280;27689;48.390;10.856;2024-01-25T02:16:33;97158.56;;;7.93;100.00
42001;BME280;27689;48.390;10.856;2024-01-25T02:19:16;97149.25;;;7.89;100.00
42001;BME280;27689;48.390;10.856;2024-01-25T02:22:00;97151.28;;;7.86;100.00
42001;BME280;27689;48.390;10.856;2024-01-25T02:24:44;97149.91;;;7.80;100.00
42001;BME280;27689;48.390;10.856;2024-01-25T02:27:28;97147.91;;;7.96;100.00
42001;BME280;27689;48.390;10.856;2024-01-25T02:30:12;97148.97;;;7.94;100.00
42001;BME280;27689;48.390;10.856;2024-01-25T02:32:56;97140.50;;;7.90;100.00
42001;BME280;27689;48.390;10.856;2024-01-25T02:35:40;97149.91;;;7.93;100.00
42001;BME280;27689;48.390;10.856;2024-01-25T02:38:24;97154.28;;;7.92;100.00
42001;BME280;27689;48.390;10.856;2024-01-25T02:41:08;97159.28;;;7.95;100.00
42001;BME280;27689;48.390;10.856;2024-01-25T02:43:52;97153.44;;;7.79;100.00
42001;BME280;27689;48.390;10.856;2024-01-25T02:46:36;97157.31;;;7.86;100.00
42001;BME280;27689;48.390;10.856;2024-01-25T02:49:20;97153.25;;;7.95;100.00
42001;BME280;27689;48.390;10.856;2024-01-25T02:52:04;97158.75;;;7.90;100.00
42001;BME280;27689;48.390;10.856;2024-01-25T02:54:48;97157.41;;;7.85;100.00
42001;BME280;27689;48.390;10.856;2024-01-25T02:57:33;97142.69;;;7.96;100.00
42001;BME280;27689;48.390;10.856;2024-01-25T03:00:17;97144.88;;;8.02;100.00
42001;BME280;27689;48.390;10.856;2024-01-25T03:03:00;97151.34;;;8.09;100.00
42001;BME280;27689;48.390;10.856;2024-01-25T03:05:44;97140.72;;;8.00;100.00
42001;BME280;27689;48.390;10.856;2024-01-25T03:08:28;97127.78;;;7.98;100.00
42001;BME280;27689;48.390;10.856;2024-01-25T03:11:12;97115.03;;;8.06;100.00
42001;BME280;27689;48.390;10.856;2024-01-25T03:13:56;97117.09;;;8.01;100.00
42001;BME280;27689;48.390;10.856;2024-01-25T03:16:40;97116.41;;;7.99;100.00
42001;BME280;27689;48.390;10.856;2024-01-25T03:19:25;97118.28;;;7.97;100.00
42001;BME280;27689;48.390;10.856;2024-01-25T03:22:09;97121.81;;;7.96;100.00
42001;BME280;27689;48.390;10.856;2024-01-25T03:24:54;97123.16;;;7.89;100.00
42001;BME280;27689;48.390;10.856;2024-01-25T03:27:38;97119.94;;;7.98;100.00
42001;BME280;27689;48.390;10.856;2024-01-25T03:30:22;97120.16;;;7.95;100.00
42001;BME280;27689;48.390;10.856;2024-01-25T03:33:06;97128.28;;;8.03;100.00
42001;BME280;27689;48.390;10.856;2024-01-25T03:35:50;97121.38;;;8.02;100.00
42001;BME280;27689;48.390;10.856;2024-01-25T03:38:34;97130.03;;;8.03;100.00
42001;BME280;27689;48.390;10.856;2024-01-25T03:41:17;97140.19;;;8.07;100.00
42001;BME280;27689;48.390;10.856;2024-01-25T03:44:01;97137.28;;;7.99;100.00
42001;BME280;27689;48.390;10.856;2024-01-25T03:46:45;97128.91;;;7.94;100.00
42001;BME280;27689;48.390;10.856;2024-01-25T03:49:29;97140.47;;;8.03;100.00
42001;BME280;27689;48.390;10.856;2024-01-25T03:52:13;97136.63;;;8.08;100.00
42001;BME280;27689;48.390;10.856;2024-01-25T03:54:57;97137.06;;;8.15;100.00
42001;BME280;27689;48.390;10.856;2024-01-25T03:57:41;97143.53;;;8.09;100.00
42001;BME280;27689;48.390;10.856;2024-01-25T04:00:25;97144.25;;;8.11;100.00
42001;BME280;27689;48.390;10.856;2024-01-25T04:03:09;97156.38;;;8.12;100.00
42001;BME280;27689;48.390;10.856;2024-01-25T04:05:53;97159.81;;;8.13;100.00
42001;BME280;27689;48.390;10.856;2024-01-25T04:08:37;97152.91;;;8.12;100.00
42001;BME280;27689;48.390;10.856;2024-01-25T04:11:21;97157.72;;;8.05;100.00
42001;BME280;27689;48.390;10.856;2024-01-25T04:14:05;97167.41;;;8.03;100.00
42001;BME280;27689;48.390;10.856;2024-01-25T04:16:49;97164.06;;;8.01;100.00
42001;BME280;27689;48.390;10.856;2024-01-25T04:19:33;97170.84;;;8.04;100.00
42001;BME280;27689;48.390;10.856;2024-01-25T04:22:19;97172.53;;;8.05;100.00
42001;BME280;27689;48.390;10.856;2024-01-25T04:25:03;97170.03;;;8.03;100.00
42001;BME280;27689;48.390;10.856;2024-01-25T04:27:48;97175.88;;;7.94;100.00
42001;BME280;27689;48.390;10.856;2024-01-25T04:30:32;97179.03;;;7.99;100.00
42001;BME280;27689;48.390;10.856;2024-01-25T04:33:16;97185.91;;;8.00;100.00
42001;BME280;27689;48.390;10.856;2024-01-25T04:36:00;97187.25;;;8.06;100.00
42001;BME280;27689;48.390;10.856;2024-01-25T04:38:44;97191.88;;;8.15;100.00
42001;BME280;27689;48.390;10.856;2024-01-25T04:41:28;97189.56;;;8.10;100.00
42001;BME280;27689;48.390;10.856;2024-01-25T04:44:12;97203.44;;;8.11;100.00
42001;BME280;27689;48.390;10.856;2024-01-25T04:46:56;97203.94;;;8.03;100.00
42001;BME280;27689;48.390;10.856;2024-01-25T04:49:40;97207.09;;;8.08;100.00
42001;BME280;27689;48.390;10.856;2024-01-25T04:52:24;97214.19;;;8.06;100.00
42001;BME280;27689;48.390;10.856;2024-01-25T04:55:08;97218.16;;;7.99;100.00
42001;BME280;27689;48.390;10.856;2024-01-25T04:57:52;97224.94;;;8.02;100.00
42001;BME280;27689;48.390;10.856;2024-01-25T05:00:37;97231.91;;;8.01;100.00
42001;BME280;27689;48.390;10.856;2024-01-25T05:03:21;97239.44;;;7.93;100.00
42001;BME280;27689;48.390;10.856;2024-01-25T05:06:05;97236.00;;;7.93;100.00
42001;BME280;27689;48.390;10.856;2024-01-25T05:08:49;97237.38;;;7.98;100.00
42001;BME280;27689;48.390;10.856;2024-01-25T05:11:33;97241.63;;;7.87;100.00
42001;BME280;27689;48.390;10.856;2024-01-25T05:14:17;97250.09;;;7.90;100.00
42001;BME280;27689;48.390;10.856;2024-01-25T05:17:01;97261.44;;;7.89;100.00
42001;BME280;27689;48.390;10.856;2024-01-25T05:19:44;97260.13;;;7.96;100.00
42001;BME280;27689;48.390;10.856;2024-01-25T05:22:29;97253.84;;;7.86;100.00
42001;BME280;27689;48.390;10.856;2024-01-25T05:25:12;97263.31;;;7.87;100.00
42001;BME280;27689;48.390;10.856;2024-01-25T05:27:57;97261.69;;;7.86;100.00
42001;BME280;27689;48.390;10.856;2024-01-25T05:30:41;97258.09;;;7.87;100.00
42001;BME280;27689;48.390;10.856;2024-01-25T05:33:25;97261.34;;;7.78;100.00
42001;BME280;27689;48.390;10.856;2024-01-25T05:36:09;97263.75;;;7.81;100.00
42001;BME280;27689;48.390;10.856;2024-01-25T05:38:53;97260.09;;;7.84;100.00
42001;BME280;27689;48.390;10.856;2024-01-25T05:41:37;97265.53;;;7.81;100.00
42001;BME280;27689;48.390;10.856;2024-01-25T05:44:21;97262.47;;;7.87;100.00
42001;BME280;27689;48.390;10.856;2024-01-25T05:47:05;97269.72;;;7.83;100.00
42001;BME280;27689;48.390;10.856;2024-01-25T05:49:49;97271.38;;;7.84;100.00
42001;BME280;27689;48.390;10.856;2024-01-25T05:52:33;97270.72;;;7.68;100.00
42001;BME280;27689;48.390;10.856;2024-01-25T05:55:17;97266.34;;;7.68;100.00
42001;BME280;27689;48.390;10.856;2024-01-25T05:58:01;97272.47;;;7.67;100.00
42001;BME280;27689;48.390;10.856;2024-01-25T06:00:45;97282.81;;;7.69;100.00
42001;BME280;27689;48.390;10.856;2024-01-25T06:03:28;97287.94;;;7.70;100.00
42001;BME280;27689;48.390;10.856;2024-01-25T06:06:12;97274.53;;;7.62;100.00
42001;BME280;27689;48.390;10.856;2024-01-25T06:08:56;97279.53;;;7.53;100.00
42001;BME280;27689;48.390;10.856;2024-01-25T06:11:40;97291.00;;;7.50;100.00
42001;BME280;27689;48.390;10.856;2024-01-25T06:14:24;97296.59;;;7.44;100.00
42001;BME280;27689;48.390;10.856;2024-01-25T06:17:08;97303.88;;;7.39;100.00
42001;BME280;27689;48.390;10.856;2024-01-25T06:19:52;97305.00;;;7.35;100.00
42001;BME280;27689;48.390;10.856;2024-01-25T06:22:36;97306.13;;;7.31;100.00
42001;BME280;27689;48.390;10.856;2024-01-25T06:25:20;97304.50;;;7.16;100.00
42001;BME280;27689;48.390;10.856;2024-01-25T06:28:04;97305.72;;;7.10;100.00
42001;BME280;27689;48.390;10.856;2024-01-25T06:30:48;97317.94;;;7.10;100.00
42001;BME280;27689;48.390;10.856;2024-01-25T06:33:32;97320.34;;;6.98;100.00
42001;BME280;27689;48.390;10.856;2024-01-25T06:36:16;97331.34;;;6.89;100.00
42001;BME280;27689;48.390;10.856;2024-01-25T06:39:00;97335.97;;;6.84;100.00
42001;BME280;27689;48.390;10.856;2024-01-25T06:41:44;97348.38;;;6.81;100.00
42001;BME280;27689;48.390;10.856;2024-01-25T06:44:28;97350.88;;;6.68;100.00
42001;BME280;27689;48.390;10.856;2024-01-25T06:47:12;97350.41;;;6.61;100.00
42001;BME280;27689;48.390;10.856;2024-01-25T06:49:56;97352.75;;;6.52;100.00
42001;BME280;27689;48.390;10.856;2024-01-25T06:52:40;97360.25;;;6.56;100.00
42001;BME280;27689;48.390;10.856;2024-01-25T06:55:24;97354.84;;;6.45;100.00
42001;BME280;27689;48.390;10.856;2024-01-25T06:58:08;97370.47;;;6.45;100.00
42001;BME280;27689;48.390;10.856;2024-01-25T07:00:52;97359.31;;;6.43;100.00
42001;BME280;27689;48.390;10.856;2024-01-25T07:03:36;97370.81;;;6.39;100.00
42001;BME280;27689;48.390;10.856;2024-01-25T07:06:20;97380.22;;;6.42;100.00
42001;BME280;27689;48.390;10.856;2024-01-25T07:09:04;97380.31;;;6.40;100.00
42001;BME280;27689;48.390;10.856;2024-01-25T07:11:48;97369.97;;;6.38;100.00
42001;BME280;27689;48.390;10.856;2024-01-25T07:14:32;97380.13;;;6.43;100.00
42001;BME280;27689;48.390;10.856;2024-01-25T07:17:15;97382.41;;;6.63;100.00
42001;BME280;27689;48.390;10.856;2024-01-25T07:19:59;97396.44;;;6.75;100.00
42001;BME280;27689;48.390;10.856;2024-01-25T07:22:43;97388.38;;;6.65;100.00
42001;BME280;27689;48.390;10.856;2024-01-25T07:25:27;97393.84;;;6.61;100.00
42001;BME280;27689;48.390;10.856;2024-01-25T07:28:11;97391.41;;;6.58;100.00
42001;BME280;27689;48.390;10.856;2024-01-25T07:30:55;97386.03;;;6.61;100.00
42001;BME280;27689;48.390;10.856;2024-01-25T07:33:39;97391.41;;;6.58;100.00
42001;BME280;27689;48.390;10.856;2024-01-25T07:36:23;97392.06;;;6.61;100.00
42001;BME280;27689;48.390;10.856;2024-01-25T07:39:06;97406.03;;;6.75;100.00
42001;BME280;27689;48.390;10.856;2024-01-25T07:41:51;97398.31;;;6.73;100.00
42001;BME280;27689;48.390;10.856;2024-01-25T07:44:35;97405.09;;;6.76;100.00
42001;BME280;27689;48.390;10.856;2024-01-25T07:47:19;97400.66;;;6.78;100.00
42001;BME280;27689;48.390;10.856;2024-01-25T07:50:03;97394.03;;;6.86;100.00
42001;BME280;27689;48.390;10.856;2024-01-25T07:52:47;97403.72;;;6.84;100.00
42001;BME280;27689;48.390;10.856;2024-01-25T07:55:33;97409.00;;;6.83;100.00
42001;BME280;27689;48.390;10.856;2024-01-25T07:58:17;97416.81;;;6.83;100.00
42001;BME280;27689;48.390;10.856;2024-01-25T08:01:04;97415.72;;;6.87;100.00
42001;BME280;27689;48.390;10.856;2024-01-25T08:03:52;97422.44;;;6.91;100.00
42001;BME280;27689;48.390;10.856;2024-01-25T08:06:36;97426.72;;;6.92;100.00
42001;BME280;27689;48.390;10.856;2024-01-25T08:09:20;97427.38;;;6.95;100.00
42001;BME280;27689;48.390;10.856;2024-01-25T08:12:04;97425.22;;;7.02;100.00
42001;BME280;27689;48.390;10.856;2024-01-25T08:14:48;97440.50;;;7.08;100.00
42001;BME280;27689;48.390;10.856;2024-01-25T08:17:32;97458.91;;;7.05;100.00
42001;BME280;27689;48.390;10.856;2024-01-25T08:20:15;97439.38;;;7.12;100.00
42001;BME280;27689;48.390;10.856;2024-01-25T08:22:59;97433.34;;;7.12;100.00
42001;BME280;27689;48.390;10.856;2024-01-25T08:25:43;97430.81;;;7.24;100.00
42001;BME280;27689;48.390;10.856;2024-01-25T08:28:27;97425.94;;;7.32;100.00
42001;BME280;27689;48.390;10.856;2024-01-25T08:31:13;97422.97;;;7.38;98.80
42001;BME280;27689;48.390;10.856;2024-01-25T08:33:57;97441.84;;;7.42;98.65
42001;BME280;27689;48.390;10.856;2024-01-25T08:36:41;97439.38;;;7.40;98.39
42001;BME280;27689;48.390;10.856;2024-01-25T08:39:25;97436.75;;;7.40;98.34
42001;BME280;27689;48.390;10.856;2024-01-25T08:42:08;97424.56;;;7.41;98.96
42001;BME280;27689;48.390;10.856;2024-01-25T08:44:53;97429.19;;;7.50;97.73
42001;BME280;27689;48.390;10.856;2024-01-25T08:47:36;97436.53;;;7.58;97.45
42001;BME280;27689;48.390;10.856;2024-01-25T08:50:20;97445.50;;;7.54;98.16
42001;BME280;27689;48.390;10.856;2024-01-25T08:53:04;97447.59;;;7.61;95.86
42001;BME280;27689;48.390;10.856;2024-01-25T08:55:49;97450.03;;;7.64;96.01
42001;BME280;27689;48.390;10.856;2024-01-25T08:58:32;97449.09;;;7.65;97.24
42001;BME280;27689;48.390;10.856;2024-01-25T09:01:16;97458.75;;;7.77;95.30
42001;BME280;27689;48.390;10.856;2024-01-25T09:04:00;97459.94;;;8.00;93.81
42001;BME280;27689;48.390;10.856;2024-01-25T09:06:47;97474.72;;;8.14;92.68
42001;BME280;27689;48.390;10.856;2024-01-25T09:09:31;97488.66;;;8.27;91.61
42001;BME280;27689;48.390;10.856;2024-01-25T09:12:15;97491.06;;;8.30;89.48
42001;BME280;27689;48.390;10.856;2024-01-25T09:15:00;97492.00;;;8.29;89.20
42001;BME280;27689;48.390;10.856;2024-01-25T09:17:44;97497.34;;;8.13;89.29
42001;BME280;27689;48.390;10.856;2024-01-25T09:20:29;97502.34;;;8.17;88.58
42001;BME280;27689;48.390;10.856;2024-01-25T09:23:13;97497.69;;;8.22;89.50
42001;BME280;27689;48.390;10.856;2024-01-25T09:25:57;97487.81;;;8.27;88.90
42001;BME280;27689;48.390;10.856;2024-01-25T09:28:41;97486.50;;;8.20;89.38
42001;BME280;27689;48.390;10.856;2024-01-25T09:31:25;97469.97;;;8.33;86.62
42001;BME280;27689;48.390;10.856;2024-01-25T09:34:09;97465.50;;;8.35;87.75
42001;BME280;27689;48.390;10.856;2024-01-25T09:36:53;97463.66;;;8.50;87.41
42001;BME280;27689;48.390;10.856;2024-01-25T09:39:37;97467.56;;;8.57;86.32
42001;BME280;27689;48.390;10.856;2024-01-25T09:42:21;97457.22;;;8.68;86.79
42001;BME280;27689;48.390;10.856;2024-01-25T09:45:06;97456.84;;;8.74;84.67
42001;BME280;27689;48.390;10.856;2024-01-25T09:47:50;97457.03;;;8.71;85.29
42001;BME280;27689;48.390;10.856;2024-01-25T09:50:34;97452.94;;;8.80;84.19
42001;BME280;27689;48.390;10.856;2024-01-25T09:53:21;97456.19;;;8.83;85.24
42001;BME280;27689;48.390;10.856;2024-01-25T09:56:06;97441.66;;;8.92;83.86
42001;BME280;27689;48.390;10.856;2024-01-25T09:58:53;97439.28;;;9.14;83.24
42001;BME280;27689;48.390;10.856;2024-01-25T10:01:37;97447.22;;;9.26;81.72
42001;BME280;27689;48.390;10.856;2024-01-25T10:04:21;97451.94;;;9.33;81.76
42001;BME280;27689;48.390;10.856;2024-01-25T10:07:07;97453.91;;;9.30;81.82
42001;BME280;27689;48.390;10.856;2024-01-25T10:09:51;97454.19;;;9.38;79.93
42001;BME280;27689;48.390;10.856;2024-01-25T10:12:37;97452.53;;;9.37;79.47
42001;BME280;27689;48.390;10.856;2024-01-25T10:15:20;97459.25;;;9.28;77.86
42001;BME280;27689;48.390;10.856;2024-01-25T10:18:04;97465.72;;;9.35;77.81
42001;BME280;27689;48.390;10.856;2024-01-25T10:20:48;97454.66;;;9.32;78.22
42001;BME280;27689;48.390;10.856;2024-01-25T10:23:32;97449.19;;;9.22;78.06
42001;BME280;27689;48.390;10.856;2024-01-25T10:26:16;97445.34;;;9.15;78.09
42001;BME280;27689;48.390;10.856;2024-01-25T10:29:01;97437.50;;;9.02;79.40
42001;BME280;27689;48.390;10.856;2024-01-25T10:31:46;97444.06;;;9.08;78.15
42001;BME280;27689;48.390;10.856;2024-01-25T10:34:30;97440.63;;;8.95;79.09
42001;BME280;27689;48.390;10.856;2024-01-25T10:37:14;97443.03;;;8.85;79.10
42001;BME280;27689;48.390;10.856;2024-01-25T10:39:59;97430.91;;;8.84;79.18
42001;BME280;27689;48.390;10.856;2024-01-25T10:42:43;97420.25;;;9.00;79.42
42001;BME280;27689;48.390;10.856;2024-01-25T10:45:27;97413.22;;;9.26;79.00
42001;BME280;27689;48.390;10.856;2024-01-25T10:48:10;97420.16;;;9.50;75.40
42001;BME280;27689;48.390;10.856;2024-01-25T10:50:57;97418.94;;;9.43;74.84
42001;BME280;27689;48.390;10.856;2024-01-25T10:53:43;97416.41;;;9.54;75.84
42001;BME280;27689;48.390;10.856;2024-01-25T10:56:26;97417.81;;;9.71;74.60
42001;BME280;27689;48.390;10.856;2024-01-25T10:59:10;97421.22;;;9.61;72.42
42001;BME280;27689;48.390;10.856;2024-01-25T11:01:54;97426.25;;;9.51;71.95
42001;BME280;27689;48.390;10.856;2024-01-25T11:04:38;97419.28;;;9.26;72.56
42001;BME280;27689;48.390;10.856;2024-01-25T11:07:22;97427.75;;;9.30;72.67
42001;BME280;27689;48.390;10.856;2024-01-25T11:10:06;97422.31;;;9.20;71.75
42001;BME280;27689;48.390;10.856;2024-01-25T11:12:57;97425.34;;;9.27;70.97
42001;BME280;27689;48.390;10.856;2024-01-25T11:15:42;97419.69;;;9.20;71.66
42001;BME280;27689;48.390;10.856;2024-01-25T11:18:26;97416.75;;;9.37;70.85
42001;BME280;27689;48.390;10.856;2024-01-25T11:21:10;97410.38;;;9.41;70.64
42001;BME280;27689;48.390;10.856;2024-01-25T11:24:00;97402.13;;;9.35;69.18
42001;BME280;27689;48.390;10.856;2024-01-25T11:26:45;97402.00;;;9.36;69.86
42001;BME280;27689;48.390;10.856;2024-01-25T11:29:29;97397.78;;;9.59;68.98
42001;BME280;27689;48.390;10.856;2024-01-25T11:32:14;97397.03;;;9.57;69.92
42001;BME280;27689;48.390;10.856;2024-01-25T11:34:58;97393.16;;;9.63;68.17
42001;BME280;27689;48.390;10.856;2024-01-25T11:37:45;97396.63;;;9.63;68.61
42001;BME280;27689;48.390;10.856;2024-01-25T11:40:29;97390.59;;;9.74;67.73
42001;BME280;27689;48.390;10.856;2024-01-25T11:43:15;97394.94;;;9.86;68.30
42001;BME280;27689;48.390;10.856;2024-01-25T11:45:59;97384.47;;;9.86;69.53
42001;BME280;27689;48.390;10.856;2024-01-25T11:48:42;97375.25;;;9.93;71.67
42001;BME280;27689;48.390;10.856;2024-01-25T11:51:26;97365.19;;;10.11;71.32
42001;BME280;27689;48.390;10.856;2024-01-25T11:54:10;97361.72;;;10.23;68.98
42001;BME280;27689;48.390;10.856;2024-01-25T11:56:54;97364.44;;;10.21;69.20
42001;BME280;27689;48.390;10.856;2024-01-25T11:59:38;97352.44;;;10.30;68.74
42001;BME280;27689;48.390;10.856;2024-01-25T12:02:22;97361.53;;;10.37;68.11
42001;BME280;27689;48.390;10.856;2024-01-25T12:05:06;97359.75;;;10.38;68.34
42001;BME280;27689;48.390;10.856;2024-01-25T12:07:50;97352.09;;;10.23;68.46
42001;BME280;27689;48.390;10.856;2024-01-25T12:10:34;97353.13;;;10.21;69.48
42001;BME280;27689;48.390;10.856;2024-01-25T12:13:18;97354.03;;;10.09;68.89
42001;BME280;27689;48.390;10.856;2024-01-25T12:16:02;97369.56;;;9.99;71.02
42001;BME280;27689;48.390;10.856;2024-01-25T12:18:47;97358.34;;;9.97;71.27
42001;BME280;27689;48.390;10.856;2024-01-25T12:21:32;97349.84;;;10.06;69.85
42001;BME280;27689;48.390;10.856;2024-01-25T12:24:16;97354.13;;;10.07;70.56
42001;BME280;27689;48.390;10.856;2024-01-25T12:27:00;97342.47;;;10.11;70.99
42001;BME280;27689;48.390;10.856;2024-01-25T12:29:44;97347.19;;;10.19;70.39
42001;BME280;27689;48.390;10.856;2024-01-25T12:32:28;97344.13;;;10.12;69.44
42001;BME280;27689;48.390;10.856;2024-01-25T12:35:12;97347.16;;;9.95;69.54
42001;BME280;27689;48.390;10.856;2024-01-25T12:37:56;97347.50;;;9.90;69.87
42001;BME280;27689;48.390;10.856;2024-01-25T12:40:43;97349.94;;;10.05;70.48
42001;BME280;27689;48.390;10.856;2024-01-25T12:43:28;97344.50;;;10.08;71.77
42001;BME280;27689;48.390;10.856;2024-01-25T12:46:12;97342.56;;;10.10;70.17
42001;BME280;27689;48.390;10.856;2024-01-25T12:48:55;97333.63;;;10.01;70.74
42001;BME280;27689;48.390;10.856;2024-01-25T12:51:41;97335.69;;;9.85;69.97
42001;BME280;27689;48.390;10.856;2024-01-25T12:54:26;97332.84;;;9.88;71.33
42001;BME280;27689;48.390;10.856;2024-01-25T12:57:10;97333.50;;;10.03;71.99
42001;BME280;27689;48.390;10.856;2024-01-25T12:59:54;97336.50;;;10.09;70.18
42001;BME280;27689;48.390;10.856;2024-01-25T13:02:38;97322.78;;;10.18;69.85
42001;BME280;27689;48.390;10.856;2024-01-25T13:05:21;97307.34;;;10.14;71.44
42001;BME280;27689;48.390;10.856;2024-01-25T13:08:06;97318.66;;;10.14;70.73
42001;BME280;27689;48.390;10.856;2024-01-25T13:10:50;97319.56;;;10.26;71.00
42001;BME280;27689;48.390;10.856;2024-01-25T13:13:34;97315.91;;;10.40;70.47
42001;BME280;27689;48.390;10.856;2024-01-25T13:16:18;97315.66;;;10.32;68.66
42001;BME280;27689;48.390;10.856;2024-01-25T13:19:01;97312.66;;;10.25;67.90
42001;BME280;27689;48.390;10.856;2024-01-25T13:21:46;97315.44;;;10.11;69.21
42001;BME280;27689;48.390;10.856;2024-01-25T13:24:29;97316.81;;;9.93;68.24
42001;BME280;27689;48.390;10.856;2024-01-25T13:27:13;97307.63;;;9.87;68.68
42001;BME280;27689;48.390;10.856;2024-01-25T13:29:57;97297.13;;;9.76;70.15
42001;BME280;27689;48.390;10.856;2024-01-25T13:32:41;97295.34;;;9.76;70.85
42001;BME280;27689;48.390;10.856;2024-01-25T13:35:25;97287.38;;;9.78;70.53
42001;BME280;27689;48.390;10.856;2024-01-25T13:38:09;97288.06;;;9.80;69.87
42001;BME280;27689;48.390;10.856;2024-01-25T13:40:58;97286.00;;;9.96;69.30
42001;BME280;27689;48.390;10.856;2024-01-25T13:43:42;97285.31;;;9.94;69.40
42001;BME280;27689;48.390;10.856;2024-01-25T13:46:26;97290.53;;;9.94;69.20
42001;BME280;27689;48.390;10.856;2024-01-25T13:49:09;97292.06;;;9.97;69.60
42001;BME280;27689;48.390;10.856;2024-01-25T13:51:53;97283.63;;;9.93;69.81
42001;BME280;27689;48.390;10.856;2024-01-25T13:54:38;97282.69;;;9.94;69.51
42001;BME280;27689;48.390;10.856;2024-01-25T13:57:22;97274.44;;;9.87;71.17
42001;BME280;27689;48.390;10.856;2024-01-25T14:00:07;97276.84;;;9.90;70.58
42001;BME280;27689;48.390;10.856;2024-01-25T14:02:51;97271.41;;;10.05;68.80
42001;BME280;27689;48.390;10.856;2024-01-25T14:05:35;97271.84;;;9.99;69.23
42001;BME280;27689;48.390;10.856;2024-01-25T14:08:19;97271.59;;;9.90;69.23
42001;BME280;27689;48.390;10.856;2024-01-25T14:11:04;97273.22;;;9.80;69.64
42001;BME280;27689;48.390;10.856;2024-01-25T14:13:49;97260.09;;;9.69;70.86
42001;BME280;27689;48.390;10.856;2024-01-25T14:16:33;97255.06;;;9.66;71.41
42001;BME280;27689;48.390;10.856;2024-01-25T14:19:16;97259.16;;;9.70;71.17
42001;BME280;27689;48.390;10.856;2024-01-25T14:22:01;97250.56;;;9.68;70.81